createdAt,value
2023-05-05T00:01:54.178Z,12.63
2023-05-05T00:04:22.795Z,14.03
2023-05-05T00:06:49.995Z,15.87
2023-05-05T00:09:17.107Z,14.87
2023-05-05T00:11:44.294Z,14.90
2023-05-05T00:14:11.459Z,14.20
2023-05-05T00:16:38.734Z,13.97
2023-05-05T00:19:06.643Z,13.95
2023-05-05T00:21:33.747Z,14.37
2023-05-05T00:24:01.058Z,14.57
2023-05-05T00:26:28.248Z,12.07
2023-05-05T00:28:55.360Z,12.03
2023-05-05T00:31:22.695Z,12.10
2023-05-05T00:33:49.909Z,12.57
2023-05-05T00:36:17.035Z,11.43
2023-05-05T00:38:44.162Z,14.47
2023-05-05T00:41:11.362Z,16.83
2023-05-05T00:43:38.478Z,20.23
2023-05-05T00:46:10.316Z,18.70
2023-05-05T00:48:37.483Z,22.50
2023-05-05T00:51:08.746Z,22.07
2023-05-05T00:53:36.190Z,20.20
2023-05-05T00:56:03.312Z,16.90
2023-05-05T00:58:30.422Z,19.33
2023-05-05T01:00:57.540Z,15.33
2023-05-05T01:03:24.917Z,14.93
2023-05-05T01:05:56.088Z,16.67
2023-05-05T01:08:29.344Z,13.90
2023-05-05T01:10:58.384Z,13.43
2023-05-05T01:13:25.513Z,13.30
2023-05-05T01:16:02.619Z,12.80
2023-05-05T01:18:44.814Z,11.83
2023-05-05T01:21:16.269Z,12.27
2023-05-05T01:23:52.459Z,13.90
2023-05-05T01:26:32.574Z,37.03
2023-05-05T01:29:02.132Z,34.33
2023-05-05T01:31:51.757Z,31.47
2023-05-05T01:34:24.290Z,23.87
2023-05-05T01:36:53.844Z,26.33
2023-05-05T01:39:21.078Z,27.60
2023-05-05T01:41:48.803Z,31.80
2023-05-05T01:44:16.841Z,32.80
2023-05-05T01:46:43.936Z,35.10
2023-05-05T01:49:11.085Z,31.00
2023-05-05T01:51:38.381Z,22.27
2023-05-05T01:54:08.101Z,26.77
2023-05-05T01:56:35.443Z,27.43
2023-05-05T01:59:02.612Z,28.97
2023-05-05T02:01:29.804Z,25.70
2023-05-05T02:03:57.182Z,27.60
2023-05-05T02:06:24.844Z,21.50
2023-05-05T02:08:52.874Z,21.13
2023-05-05T02:11:21.760Z,28.73
2023-05-05T02:13:49.075Z,34.10
2023-05-05T02:16:16.326Z,27.20
2023-05-05T02:18:43.482Z,28.57
2023-05-05T02:21:10.739Z,28.30
2023-05-05T02:23:37.862Z,32.10
2023-05-05T02:26:06.001Z,29.60
2023-05-05T02:28:38.639Z,30.80
2023-05-05T02:31:05.980Z,29.37
2023-05-05T02:33:33.702Z,27.37
2023-05-05T02:36:01.724Z,26.30
2023-05-05T02:38:29.333Z,27.53
2023-05-05T02:40:56.595Z,25.87
2023-05-05T02:43:23.950Z,25.47
2023-05-05T02:45:51.178Z,23.00
2023-05-05T02:48:18.267Z,20.97
2023-05-05T02:50:45.424Z,21.53
2023-05-05T02:53:12.522Z,24.30
2023-05-05T02:55:45.217Z,32.57
2023-05-05T02:58:14.915Z,28.40
2023-05-05T03:00:51.862Z,27.10
2023-05-05T03:03:19.620Z,26.50
2023-05-05T03:05:51.426Z,27.07
2023-05-05T03:08:19.055Z,26.33
2023-05-05T03:11:00.432Z,26.33
2023-05-05T03:13:27.593Z,26.13
2023-05-05T03:15:54.801Z,25.40
2023-05-05T03:18:21.986Z,33.37
2023-05-05T03:20:49.107Z,44.37
2023-05-05T03:23:20.833Z,30.20
2023-05-05T03:25:48.412Z,27.73
2023-05-05T03:28:15.726Z,27.27
2023-05-05T03:30:43.011Z,25.80
2023-05-05T03:33:11.358Z,25.20
2023-05-05T03:35:38.541Z,29.37
2023-05-05T03:38:05.651Z,28.87
2023-05-05T03:40:43.615Z,25.73
2023-05-05T03:43:11.870Z,19.17
2023-05-05T03:45:39.009Z,22.13
2023-05-05T03:48:06.968Z,23.20
2023-05-05T03:50:34.169Z,23.43
2023-05-05T03:53:01.440Z,27.47
2023-05-05T03:55:28.567Z,28.07
2023-05-05T03:57:55.683Z,30.43
2023-05-05T04:00:22.814Z,28.73
2023-05-05T04:02:50.053Z,37.27
2023-05-05T04:05:17.390Z,45.37
2023-05-05T04:07:44.510Z,66.80
2023-05-05T04:10:11.868Z,71.90
2023-05-05T04:12:39.073Z,66.77
2023-05-05T04:15:06.906Z,64.30
2023-05-05T04:17:34.057Z,69.80
2023-05-05T04:20:01.253Z,51.57
2023-05-05T04:22:28.356Z,42.90
2023-05-05T04:24:55.873Z,32.90
2023-05-05T04:27:23.035Z,30.23
2023-05-05T04:29:50.168Z,29.63
2023-05-05T04:32:17.598Z,31.77
2023-05-05T04:35:03.227Z,30.77
2023-05-05T04:37:30.332Z,29.63
2023-05-05T04:39:57.452Z,25.03
2023-05-05T04:42:24.621Z,24.47
2023-05-05T04:44:51.734Z,22.80
2023-05-05T04:47:18.835Z,24.33
2023-05-05T04:49:46.046Z,24.63
2023-05-05T04:52:14.028Z,25.70
2023-05-05T04:54:41.172Z,24.50
2023-05-05T04:57:08.465Z,25.33
2023-05-05T04:59:36.376Z,29.30
2023-05-05T05:02:03.551Z,24.17
2023-05-05T05:04:30.689Z,23.07
2023-05-05T05:06:59.254Z,21.07
2023-05-05T05:09:26.540Z,18.83
2023-05-05T05:11:53.664Z,18.47
2023-05-05T05:14:20.790Z,18.33
2023-05-05T05:16:51.147Z,17.47
2023-05-05T05:19:18.542Z,16.47
2023-05-05T05:21:45.744Z,15.50
2023-05-05T05:24:12.844Z,14.97
2023-05-05T05:26:39.970Z,12.87
2023-05-05T05:29:07.170Z,12.03
2023-05-05T05:31:34.480Z,11.57
2023-05-05T05:34:01.741Z,11.48
2023-05-05T05:36:28.872Z,10.50
2023-05-05T05:38:56.103Z,9.47
2023-05-05T05:41:23.345Z,8.75
2023-05-05T05:43:50.483Z,8.00
2023-05-05T05:46:18.262Z,7.30
2023-05-05T05:48:45.543Z,7.10
2023-05-05T05:51:12.625Z,6.65
2023-05-05T05:53:39.746Z,5.80
2023-05-05T05:56:07.145Z,6.70
2023-05-05T05:58:34.344Z,7.25
2023-05-05T06:01:01.502Z,6.60
2023-05-05T06:03:28.683Z,6.32
2023-05-05T06:05:55.854Z,6.57
2023-05-05T06:08:24.949Z,6.95
2023-05-05T06:10:52.261Z,5.60
2023-05-05T06:13:19.451Z,4.55
2023-05-05T06:15:46.860Z,4.45
2023-05-05T06:18:14.067Z,3.92
2023-05-05T06:20:41.276Z,6.90
2023-05-05T06:23:08.389Z,6.25
2023-05-05T06:25:35.512Z,6.20
2023-05-05T06:28:02.635Z,4.32
2023-05-05T06:30:29.862Z,4.18
2023-05-05T06:32:57.072Z,6.25
2023-05-05T06:35:24.708Z,5.43
2023-05-05T06:37:51.833Z,6.38
2023-05-05T06:40:18.953Z,7.43
2023-05-05T06:42:46.185Z,7.10
2023-05-05T06:45:13.461Z,6.53
2023-05-05T06:47:40.661Z,7.70
2023-05-05T06:50:09.183Z,5.18
2023-05-05T06:52:36.699Z,5.15
2023-05-05T06:55:04.606Z,4.72
2023-05-05T06:57:31.803Z,4.00
2023-05-05T06:59:59.252Z,4.35
2023-05-05T07:02:27.064Z,3.72
2023-05-05T07:04:55.468Z,3.65
2023-05-05T07:07:22.850Z,3.60
2023-05-05T07:09:50.021Z,3.38
2023-05-05T07:12:17.214Z,3.25
2023-05-05T07:14:44.336Z,3.72
2023-05-05T07:17:11.856Z,3.40
2023-05-05T07:19:39.002Z,3.17
2023-05-05T07:22:06.314Z,2.80
2023-05-05T07:24:33.470Z,3.75
2023-05-05T07:27:01.321Z,2.88
2023-05-05T07:29:28.465Z,3.30
2023-05-05T07:32:01.965Z,2.88
2023-05-05T07:34:29.100Z,3.05
2023-05-05T07:36:56.421Z,2.60
2023-05-05T07:39:23.623Z,2.95
2023-05-05T07:41:50.973Z,3.55
2023-05-05T07:44:18.145Z,3.95
2023-05-05T07:46:45.285Z,4.00
2023-05-05T07:49:12.391Z,4.15
2023-05-05T07:51:39.500Z,4.60
2023-05-05T07:54:06.742Z,3.90
2023-05-05T07:56:33.901Z,2.90
2023-05-05T07:59:01.124Z,3.45
2023-05-05T08:01:28.295Z,3.25
2023-05-05T08:03:55.641Z,3.28
2023-05-05T08:06:24.862Z,3.58
2023-05-05T08:08:53.491Z,4.00
2023-05-05T08:11:21.772Z,3.55
2023-05-05T08:13:48.968Z,4.95
2023-05-05T08:16:16.373Z,3.33
2023-05-05T08:18:43.526Z,3.05
2023-05-05T08:21:10.713Z,3.28
2023-05-05T08:23:38.027Z,3.67
2023-05-05T08:26:09.406Z,3.50
2023-05-05T08:28:36.875Z,3.40
2023-05-05T08:31:05.567Z,3.67
2023-05-05T08:33:32.935Z,3.30
2023-05-05T08:36:00.118Z,3.35
2023-05-05T08:38:27.389Z,3.20
2023-05-05T08:40:54.506Z,2.88
2023-05-05T08:43:23.788Z,2.90
2023-05-05T08:45:53.916Z,2.80
2023-05-05T08:48:21.304Z,3.50
2023-05-05T08:50:49.543Z,3.17
2023-05-05T08:53:17.101Z,4.00
2023-05-05T08:55:47.372Z,3.42
2023-05-05T08:58:14.523Z,3.60
2023-05-05T09:00:42.974Z,3.00
2023-05-05T09:03:10.183Z,2.97
2023-05-05T09:05:37.385Z,3.83
2023-05-05T09:08:10.173Z,2.92
2023-05-05T09:10:37.380Z,2.80
2023-05-05T09:13:07.350Z,3.00
2023-05-05T09:15:34.644Z,2.90
2023-05-05T09:18:02.031Z,3.00
2023-05-05T09:20:36.154Z,3.10
2023-05-05T09:23:10.012Z,2.83
2023-05-05T09:25:37.131Z,3.20
2023-05-05T09:28:10.909Z,3.05
2023-05-05T09:30:38.208Z,3.03
2023-05-05T09:33:05.331Z,3.30
2023-05-05T09:35:51.274Z,2.70
2023-05-05T09:38:18.786Z,2.30
2023-05-05T09:40:55.157Z,2.58
2023-05-05T09:43:22.839Z,2.90
2023-05-05T09:45:50.303Z,2.70
2023-05-05T09:48:43.881Z,2.80
2023-05-05T09:51:11.266Z,2.70
2023-05-05T09:53:42.386Z,2.65
2023-05-05T09:56:10.377Z,2.72
2023-05-05T09:58:37.749Z,2.35
2023-05-05T10:01:05.111Z,2.47
2023-05-05T10:03:32.443Z,2.78
2023-05-05T10:06:00.987Z,2.47
2023-05-05T10:08:28.849Z,3.88
2023-05-05T10:10:57.155Z,3.63
2023-05-05T10:13:24.951Z,3.28
2023-05-05T10:15:54.958Z,3.22
2023-05-05T10:18:22.198Z,3.25
2023-05-05T10:20:49.850Z,4.82
2023-05-05T10:23:18.294Z,3.50
2023-05-05T10:25:52.070Z,4.50
2023-05-05T10:28:22.181Z,3.35
2023-05-05T10:30:49.518Z,3.55
2023-05-05T10:33:31.704Z,3.30
2023-05-05T10:36:00.484Z,2.38
2023-05-05T10:38:28.544Z,3.15
2023-05-05T10:40:55.632Z,3.00
2023-05-05T10:43:22.737Z,2.78
2023-05-05T10:45:50.002Z,2.65
2023-05-05T10:48:19.747Z,3.28
2023-05-05T10:50:49.257Z,2.75
2023-05-05T10:53:33.394Z,2.55
2023-05-05T10:56:09.805Z,3.10
2023-05-05T10:58:51.110Z,2.40
2023-05-05T11:01:30.507Z,3.50
2023-05-05T11:04:16.762Z,2.72
2023-05-05T11:07:03.821Z,2.58
2023-05-05T11:09:31.400Z,3.70
2023-05-05T11:12:05.063Z,4.50
2023-05-05T11:14:32.337Z,2.50
2023-05-05T11:16:59.576Z,2.28
2023-05-05T11:19:48.228Z,2.95
2023-05-05T11:22:16.449Z,7.25
2023-05-05T11:24:43.626Z,3.40
2023-05-05T11:27:11.528Z,2.30
2023-05-05T11:29:57.659Z,2.78
2023-05-05T11:32:25.013Z,3.85
2023-05-05T11:34:52.176Z,2.55
2023-05-05T11:37:19.317Z,2.30
2023-05-05T11:39:50.498Z,2.45
2023-05-05T11:42:23.490Z,2.40
2023-05-05T11:44:51.212Z,2.30
2023-05-05T11:47:18.277Z,2.33
2023-05-05T11:49:45.390Z,3.08
2023-05-05T11:52:13.227Z,2.45
2023-05-05T11:54:41.433Z,2.10
2023-05-05T11:57:09.047Z,2.30
2023-05-05T11:59:37.374Z,2.50
2023-05-05T12:02:04.971Z,2.10
2023-05-05T12:04:32.289Z,2.00
2023-05-05T12:06:59.798Z,2.33
2023-05-05T12:09:27.528Z,1.90
2023-05-05T12:11:54.647Z,2.47
2023-05-05T12:14:22.046Z,2.33
2023-05-05T12:16:58.584Z,1.98
2023-05-05T12:19:33.239Z,2.28
2023-05-05T12:22:01.336Z,2.25
2023-05-05T12:24:30.154Z,3.80
2023-05-05T12:27:17.597Z,2.00
2023-05-05T12:29:44.791Z,3.55
2023-05-05T12:32:21.693Z,2.40
2023-05-05T12:34:49.864Z,2.20
2023-05-05T12:37:19.251Z,2.20
2023-05-05T12:39:46.723Z,2.20
2023-05-05T12:42:13.823Z,2.33
2023-05-05T12:44:41.480Z,2.25
2023-05-05T12:47:08.816Z,2.97
2023-05-05T12:49:45.889Z,2.20
2023-05-05T12:52:14.246Z,2.10
2023-05-05T12:54:57.358Z,2.22
2023-05-05T12:57:24.609Z,2.00
2023-05-05T12:59:52.760Z,2.10
2023-05-05T13:02:20.697Z,2.00
2023-05-05T13:04:51.410Z,2.15
2023-05-05T13:07:19.620Z,2.00
2023-05-05T13:09:49.871Z,2.13
2023-05-05T13:12:20.807Z,2.40
2023-05-05T13:14:48.887Z,2.13
2023-05-05T13:17:16.024Z,2.70
2023-05-05T13:19:46.125Z,3.40
2023-05-05T13:22:13.556Z,2.83
2023-05-05T13:24:50.774Z,2.25
2023-05-05T13:27:19.205Z,2.38
2023-05-05T13:29:46.655Z,2.50
2023-05-05T13:32:13.746Z,2.70
2023-05-05T13:34:41.494Z,2.47
2023-05-05T13:37:08.677Z,2.38
2023-05-05T13:39:36.860Z,2.25
2023-05-05T13:42:04.030Z,2.20
2023-05-05T13:44:31.405Z,1.92
2023-05-05T13:46:58.546Z,2.38
2023-05-05T13:49:25.771Z,2.03
2023-05-05T13:51:52.885Z,2.20
2023-05-05T13:54:19.968Z,1.77
2023-05-05T13:56:47.226Z,1.88
2023-05-05T13:59:14.383Z,1.80
2023-05-05T14:01:41.464Z,1.85
2023-05-05T14:04:08.751Z,1.80
2023-05-05T14:06:36.195Z,1.50
2023-05-05T14:09:05.786Z,1.70
2023-05-05T14:11:33.194Z,2.25
2023-05-05T14:14:00.590Z,2.10
2023-05-05T14:16:27.774Z,1.65
2023-05-05T14:18:54.960Z,1.80
2023-05-05T14:21:22.046Z,2.70
2023-05-05T14:23:49.180Z,2.10
2023-05-05T14:26:16.358Z,2.03
2023-05-05T14:28:43.553Z,1.67
2023-05-05T14:31:11.208Z,2.10
2023-05-05T14:33:38.360Z,2.55
2023-05-05T14:36:05.750Z,2.10
2023-05-05T14:38:32.883Z,2.13
2023-05-05T14:41:00.097Z,2.30
2023-05-05T14:43:27.220Z,2.03
2023-05-05T14:45:54.388Z,1.90
2023-05-05T14:48:22.380Z,2.00
2023-05-05T14:50:49.957Z,1.90
2023-05-05T14:53:18.916Z,2.08
2023-05-05T14:55:46.099Z,2.05
2023-05-05T14:58:13.187Z,2.00
2023-05-05T15:00:40.294Z,1.42
2023-05-05T15:03:07.565Z,1.88
2023-05-05T15:05:35.146Z,1.80
2023-05-05T15:08:02.297Z,2.42
2023-05-05T15:10:29.437Z,10.63
2023-05-05T15:12:56.595Z,3.35
2023-05-05T15:15:23.719Z,6.20
2023-05-05T15:17:50.863Z,6.75
2023-05-05T15:20:18.041Z,8.05
2023-05-05T15:22:45.127Z,6.68
2023-05-05T15:25:14.837Z,23.08
2023-05-05T15:27:42.083Z,13.73
2023-05-05T15:30:09.469Z,16.75
2023-05-05T15:32:36.707Z,28.98
2023-05-05T15:35:04.500Z,6.63
2023-05-05T15:37:31.666Z,6.45
2023-05-05T15:39:58.869Z,3.75
2023-05-05T15:42:25.963Z,4.35
2023-05-05T15:44:53.151Z,4.78
2023-05-05T15:47:20.425Z,2.45
2023-05-05T15:49:47.514Z,3.20
2023-05-05T15:52:14.637Z,6.13
2023-05-05T15:54:41.816Z,4.05
2023-05-05T15:57:08.919Z,2.92
2023-05-05T15:59:36.036Z,3.63
2023-05-05T16:02:03.274Z,2.78
2023-05-05T16:04:30.558Z,2.80
2023-05-05T16:06:58.101Z,3.35
2023-05-05T16:09:25.268Z,3.42
2023-05-05T16:11:53.986Z,2.90
2023-05-05T16:14:21.105Z,3.78
2023-05-05T16:16:48.310Z,2.88
2023-05-05T16:19:15.895Z,2.45
2023-05-05T16:21:43.157Z,3.53
2023-05-05T16:24:10.292Z,4.80
2023-05-05T16:26:37.376Z,3.08
2023-05-05T16:29:04.440Z,3.08
2023-05-05T16:31:33.887Z,3.70
2023-05-05T16:34:01.197Z,3.35
2023-05-05T16:36:28.360Z,2.80
2023-05-05T16:38:56.099Z,3.38
2023-05-05T16:41:23.438Z,3.50
2023-05-05T16:43:50.593Z,3.25
2023-05-05T16:46:18.274Z,2.50
2023-05-05T16:48:46.001Z,2.38
2023-05-05T16:51:13.102Z,2.80
2023-05-05T16:53:40.224Z,3.40
2023-05-05T16:56:07.331Z,3.40
2023-05-05T16:58:34.396Z,3.42
2023-05-05T17:01:03.427Z,4.35
2023-05-05T17:03:30.516Z,4.00
2023-05-05T17:05:57.732Z,5.13
2023-05-05T17:08:24.994Z,5.30
2023-05-05T17:10:52.091Z,4.97
2023-05-05T17:13:19.413Z,3.70
2023-05-05T17:15:46.884Z,3.17
2023-05-05T17:18:14.026Z,2.50
2023-05-05T17:20:41.274Z,2.92
2023-05-05T17:23:08.797Z,3.20
2023-05-05T17:25:35.971Z,4.20
2023-05-05T17:28:03.143Z,3.90
2023-05-05T17:30:30.306Z,3.97
2023-05-05T17:32:57.601Z,4.38
2023-05-05T17:35:24.745Z,3.30
2023-05-05T17:37:51.920Z,3.72
2023-05-05T17:40:19.025Z,4.30
2023-05-05T17:42:46.111Z,4.90
2023-05-05T17:45:13.241Z,4.70
2023-05-05T17:47:40.372Z,5.35
2023-05-05T17:50:07.726Z,4.63
2023-05-05T17:52:34.819Z,4.40
2023-05-05T17:55:01.892Z,10.60
2023-05-05T17:57:29.027Z,5.10
2023-05-05T17:59:56.173Z,5.05
2023-05-05T18:02:24.085Z,10.75
2023-05-05T18:04:51.321Z,6.32
2023-05-05T18:07:18.451Z,6.30
2023-05-05T18:09:45.582Z,5.78
2023-05-05T18:12:12.709Z,15.55
2023-05-05T18:14:39.841Z,39.95
2023-05-05T18:17:07.097Z,15.82
2023-05-05T18:19:34.162Z,14.82
2023-05-05T18:22:01.565Z,22.17
2023-05-05T18:24:29.371Z,30.67
2023-05-05T18:26:56.637Z,62.53
2023-05-05T18:29:23.776Z,73.65
2023-05-05T18:31:52.992Z,58.25
2023-05-05T18:34:20.657Z,49.75
2023-05-05T18:36:47.984Z,32.05
2023-05-05T18:39:15.254Z,28.77
2023-05-05T18:41:42.362Z,27.52
2023-05-05T18:44:10.494Z,32.90
2023-05-05T18:46:37.713Z,36.65
2023-05-05T18:49:04.897Z,26.40
2023-05-05T18:51:32.260Z,26.42
2023-05-05T18:54:00.832Z,27.90
2023-05-05T18:56:28.032Z,30.20
2023-05-05T18:58:55.542Z,27.55
2023-05-05T19:01:23.301Z,25.35
2023-05-05T19:03:50.595Z,20.77
2023-05-05T19:06:18.185Z,20.55
2023-05-05T19:08:46.477Z,20.58
2023-05-05T19:11:15.036Z,17.67
2023-05-05T19:13:42.570Z,17.63
2023-05-05T19:16:10.952Z,17.88
2023-05-05T19:18:38.307Z,20.33
2023-05-05T19:21:05.432Z,15.65
2023-05-05T19:23:33.242Z,20.20
2023-05-05T19:26:00.761Z,19.02
2023-05-05T19:28:27.942Z,17.25
2023-05-05T19:30:55.083Z,12.68
2023-05-05T19:33:23.079Z,11.60
2023-05-05T19:35:50.548Z,12.40
2023-05-05T19:38:17.660Z,14.25
2023-05-05T19:40:44.746Z,13.05
2023-05-05T19:43:11.851Z,12.35
2023-05-05T19:45:39.075Z,11.95
2023-05-05T19:48:06.647Z,11.75
2023-05-05T19:50:33.786Z,11.50
2023-05-05T19:53:01.294Z,10.98
2023-05-05T19:55:28.414Z,11.30
2023-05-05T19:57:55.592Z,10.82
2023-05-05T20:00:22.794Z,11.05
2023-05-05T20:02:50.022Z,11.80
2023-05-05T20:05:17.463Z,14.43
2023-05-05T20:07:46.755Z,13.10
2023-05-05T20:10:14.002Z,25.63
2023-05-05T20:12:47.652Z,17.98
2023-05-05T20:15:18.473Z,24.85
2023-05-05T20:17:46.493Z,21.23
2023-05-05T20:20:16.157Z,26.65
2023-05-05T20:22:43.300Z,23.52
2023-05-05T20:25:10.489Z,29.25
2023-05-05T20:27:38.394Z,23.77
2023-05-05T20:30:09.546Z,19.40
2023-05-05T20:32:37.055Z,18.63
2023-05-05T20:35:05.756Z,18.42
2023-05-05T20:37:32.842Z,18.52
2023-05-05T20:39:59.992Z,16.77
2023-05-05T20:42:27.837Z,16.80
2023-05-05T20:44:55.255Z,18.38
2023-05-05T20:47:22.409Z,15.20
2023-05-05T20:49:49.511Z,15.57
2023-05-05T20:52:16.626Z,23.98
2023-05-05T20:54:43.769Z,59.60
2023-05-05T20:57:10.965Z,54.65
2023-05-05T20:59:38.333Z,49.10
2023-05-05T21:02:05.481Z,44.53
2023-05-05T21:04:32.793Z,39.50
2023-05-05T21:06:59.904Z,28.02
2023-05-05T21:09:27.048Z,26.48
2023-05-05T21:11:54.305Z,28.17
2023-05-05T21:14:21.935Z,21.92
2023-05-05T21:16:49.125Z,16.95
2023-05-05T21:19:16.448Z,18.10
2023-05-05T21:21:44.200Z,17.10
2023-05-05T21:24:13.006Z,17.80
2023-05-05T21:26:44.169Z,18.35
2023-05-05T21:29:11.431Z,17.90
2023-05-05T21:31:38.714Z,17.08
2023-05-05T21:34:05.996Z,17.50
2023-05-05T21:36:33.896Z,17.40
2023-05-05T21:39:01.260Z,19.35
2023-05-05T21:41:28.443Z,20.88
2023-05-05T21:43:55.739Z,21.67
2023-05-05T21:46:23.033Z,23.20
2023-05-05T21:48:50.316Z,21.17
2023-05-05T21:51:17.521Z,21.88
2023-05-05T21:53:44.672Z,19.52
2023-05-05T21:56:11.949Z,16.83
2023-05-05T21:58:40.938Z,15.73
2023-05-05T22:01:08.137Z,15.68
2023-05-05T22:03:35.483Z,13.98
2023-05-05T22:06:02.700Z,13.15
2023-05-05T22:08:29.809Z,15.00
2023-05-05T22:10:56.939Z,16.90
2023-05-05T22:13:24.100Z,17.35
2023-05-05T22:15:51.311Z,17.00
2023-05-05T22:18:18.485Z,16.98
2023-05-05T22:20:46.699Z,19.08
2023-05-05T22:23:14.053Z,21.38
2023-05-05T22:25:41.308Z,22.42
2023-05-05T22:28:08.388Z,15.43
2023-05-05T22:30:35.482Z,15.90
2023-05-05T22:33:02.695Z,16.83
2023-05-05T22:35:29.908Z,17.05
2023-05-05T22:37:57.079Z,17.17
2023-05-05T22:40:24.230Z,17.42
2023-05-05T22:42:51.413Z,18.08
2023-05-05T22:45:18.561Z,17.25
2023-05-05T22:47:45.746Z,17.30
2023-05-05T22:50:12.912Z,15.95
2023-05-05T22:52:39.991Z,17.15
2023-05-05T22:55:07.666Z,16.08
2023-05-05T22:57:35.648Z,14.10
2023-05-05T23:00:03.194Z,10.77
2023-05-05T23:02:30.347Z,10.50
2023-05-05T23:04:57.463Z,9.30
2023-05-05T23:07:24.593Z,9.68
2023-05-05T23:09:51.704Z,10.07
2023-05-05T23:12:18.823Z,10.35
2023-05-05T23:14:46.006Z,10.02
2023-05-05T23:17:13.230Z,11.18
2023-05-05T23:19:40.484Z,10.70
2023-05-05T23:22:07.575Z,10.75
2023-05-05T23:24:34.676Z,10.85
2023-05-05T23:27:02.105Z,11.85
2023-05-05T23:29:29.331Z,13.20
2023-05-05T23:31:56.488Z,13.32
2023-05-05T23:34:23.593Z,14.73
2023-05-05T23:36:50.705Z,14.93
2023-05-05T23:39:17.792Z,14.43
2023-05-05T23:41:44.913Z,15.65
2023-05-05T23:44:12.015Z,15.45
2023-05-05T23:46:39.316Z,14.63
2023-05-05T23:49:06.533Z,15.60
2023-05-05T23:51:33.763Z,15.73
2023-05-05T23:54:01.133Z,11.57
2023-05-05T23:56:28.280Z,15.03
2023-05-05T23:58:56.047Z,14.73
